Time;durP1;ratioP1;P1;durP2;ratioP2;P2;SDS_P1;SDS_P2;PMS_P1;PMS_P2;Temp;Humidity;BMP_temperature;BMP_pressure;BME280_temperature;BME280_humidity;BME280_pressure;Samples;Min_cycle;Max_cycle;Signal;HPM_P1;HPM_P2
2021/01/21 00:01:20;;;;;;;33.80;14.07;;;0.80;87.10;;;;;;4965796;28;20751;-74
2021/01/21 00:03:46;;;;;;;22.47;12.70;;;0.80;87.10;;;;;;4967156;28;20723;-74
2021/01/21 00:06:13;;;;;;;22.80;11.80;;;0.80;87.10;;;;;;4964382;28;20694;-74
2021/01/21 00:08:39;;;;;;;23.20;11.67;;;0.80;87.80;;;;;;4964735;28;20790;-74
2021/01/21 00:11:05;;;;;;;23.33;11.27;;;0.70;87.70;;;;;;4966440;28;20667;-74
2021/01/21 00:13:30;;;;;;;25.07;12.10;;;0.60;87.70;;;;;;4966809;28;20196;-74
2021/01/21 00:15:56;;;;;;;25.37;11.57;;;0.60;88.10;;;;;;4963515;28;20301;-74
2021/01/21 00:18:22;;;;;;;32.90;12.50;;;0.50;88.50;;;;;;4966537;28;20248;-74
2021/01/21 00:20:47;;;;;;;27.60;12.63;;;0.60;88.00;;;;;;4966044;28;20277;-74
2021/01/21 00:23:13;;;;;;;28.07;11.23;;;0.60;88.20;;;;;;4966446;28;20190;-74
2021/01/21 00:25:39;;;;;;;26.77;12.37;;;0.60;88.30;;;;;;4964869;28;21177;-74
2021/01/21 00:28:05;;;;;;;24.07;12.30;;;0.60;88.60;;;;;;4967123;28;20185;-74
2021/01/21 00:30:31;;;;;;;18.90;10.13;;;0.50;88.50;;;;;;4970609;28;20214;-74
2021/01/21 00:32:57;;;;;;;29.83;12.57;;;0.50;88.30;;;;;;4968908;28;20186;-74
2021/01/21 00:35:22;;;;;;;16.13;10.30;;;0.40;88.40;;;;;;4970229;28;20252;-74
2021/01/21 00:37:48;;;;;;;22.73;10.73;;;0.50;88.50;;;;;;4952554;28;20209;-74
2021/01/21 00:40:14;;;;;;;23.37;12.53;;;0.50;88.20;;;;;;4970211;28;20237;-74
2021/01/21 00:42:40;;;;;;;21.20;12.07;;;0.50;88.30;;;;;;4970324;28;20182;-74
2021/01/21 00:45:06;;;;;;;23.23;12.17;;;0.50;88.80;;;;;;4959167;28;20266;-74
2021/01/21 00:47:32;;;;;;;22.93;11.93;;;0.40;88.50;;;;;;4970419;28;20182;-74
2021/01/21 00:49:57;;;;;;;16.20;10.40;;;0.40;88.50;;;;;;4970100;28;20186;-74
2021/01/21 00:52:23;;;;;;;20.73;11.93;;;0.40;88.50;;;;;;4970451;28;20186;-73
2021/01/21 00:54:48;;;;;;;29.27;14.00;;;0.40;88.60;;;;;;4970396;28;20245;-73
2021/01/21 00:57:14;;;;;;;21.93;12.13;;;0.40;89.10;;;;;;4970079;28;20643;-74
2021/01/21 00:59:40;;;;;;;22.30;10.67;;;0.40;88.80;;;;;;4961820;28;20182;-74
2021/01/21 01:02:05;;;;;;;24.17;11.23;;;0.40;88.70;;;;;;4969743;28;20225;-74
2021/01/21 01:04:31;;;;;;;29.63;12.13;;;0.40;89.10;;;;;;4970071;28;20197;-74
2021/01/21 01:06:57;;;;;;;21.17;10.57;;;0.40;88.90;;;;;;4967732;28;20206;-73
2021/01/21 01:09:23;;;;;;;29.47;10.30;;;0.40;89.00;;;;;;4970070;28;20272;-73
2021/01/21 01:11:48;;;;;;;22.00;11.17;;;0.40;89.10;;;;;;4969754;28;20182;-73
2021/01/21 01:14:14;;;;;;;21.23;11.07;;;0.40;88.90;;;;;;4964872;28;20213;-73
2021/01/21 01:16:40;;;;;;;23.70;11.70;;;0.40;88.90;;;;;;4968838;28;20238;-73
2021/01/21 01:19:06;;;;;;;24.73;10.93;;;0.40;88.70;;;;;;4947754;28;20682;-73
2021/01/21 01:21:31;;;;;;;21.50;10.10;;;0.40;89.00;;;;;;4969320;28;20209;-73
2021/01/21 01:23:57;;;;;;;21.67;10.10;;;0.40;88.90;;;;;;4969125;28;20610;-73
2021/01/21 01:26:23;;;;;;;19.77;10.17;;;0.40;88.80;;;;;;4969225;28;20293;-73
2021/01/21 01:28:48;;;;;;;25.10;11.07;;;0.40;89.00;;;;;;4969376;28;20303;-74
2021/01/21 01:31:14;;;;;;;27.73;11.80;;;0.40;88.60;;;;;;4950135;28;20206;-73
2021/01/21 01:33:41;;;;;;;14.00;9.37;;;0.40;88.90;;;;;;4952242;28;20201;-74
2021/01/21 01:36:07;;;;;;;22.17;10.40;;;0.40;88.60;;;;;;4967394;28;20585;-73
2021/01/21 01:38:33;;;;;;;25.33;10.43;;;0.30;88.40;;;;;;4969307;28;20194;-73
2021/01/21 01:40:59;;;;;;;24.77;9.27;;;0.30;88.50;;;;;;4965164;28;20187;-73
2021/01/21 01:43:25;;;;;;;21.30;9.53;;;0.30;88.60;;;;;;4968800;28;20269;-73
2021/01/21 01:45:50;;;;;;;15.43;9.87;;;0.30;88.50;;;;;;4968884;28;20206;-73
2021/01/21 01:48:18;;;;;;;19.00;9.23;;;0.30;88.60;;;;;;4969281;28;20187;-73
2021/01/21 01:50:45;;;;;;;19.83;10.77;;;0.30;88.60;;;;;;4968222;28;20174;-73
2021/01/21 01:53:11;;;;;;;24.17;10.97;;;0.30;88.60;;;;;;4950607;28;20187;-73
2021/01/21 01:55:40;;;;;;;13.53;8.93;;;0.30;88.50;;;;;;4967650;28;20183;-74
2021/01/21 01:58:08;;;;;;;21.07;9.80;;;0.20;88.50;;;;;;4969011;28;20245;-73
2021/01/21 02:00:34;;;;;;;17.03;10.20;;;0.30;88.70;;;;;;4968873;28;21016;-73
2021/01/21 02:03:00;;;;;;;22.07;10.90;;;0.20;88.60;;;;;;4968717;28;20186;-73
2021/01/21 02:05:26;;;;;;;14.77;8.93;;;0.20;88.60;;;;;;4949404;28;21086;-74
2021/01/21 02:07:52;;;;;;;20.37;9.67;;;0.20;88.70;;;;;;4967279;28;20178;-74
2021/01/21 02:10:19;;;;;;;23.43;11.00;;;0.20;88.60;;;;;;4967779;28;20178;-73
2021/01/21 02:13:16;;;;;;;32.17;15.03;;;0.20;88.60;;;;;;4969264;28;20220;-74
2021/01/21 02:16:10;;;;;;;25.23;11.40;;;0.20;88.70;;;;;;4966903;28;20178;-74
2021/01/21 02:18:43;;;;;;;21.17;11.57;;;0.20;89.10;;;;;;4948836;29;20269;-74
2021/01/21 02:21:37;;;;;;;34.80;13.97;;;0.20;89.00;;;;;;4946989;28;20187;-73
2021/01/21 02:24:31;;;;;;;30.57;14.03;;;0.20;88.90;;;;;;4957356;28;20198;-73
2021/01/21 02:27:05;;;;;;;27.10;13.70;;;0.20;89.10;;;;;;4950810;28;20263;-74
2021/01/21 02:29:36;;;;;;;28.00;13.13;;;0.20;89.10;;;;;;4952869;28;20285;-73
2021/01/21 02:32:08;;;;;;;23.77;11.37;;;0.20;89.10;;;;;;4968110;28;20332;-74
2021/01/21 02:34:49;;;;;;;20.97;11.67;;;0.20;89.20;;;;;;4966474;28;20190;-73
2021/01/21 02:37:22;;;;;;;15.80;9.63;;;0.20;89.00;;;;;;4950762;28;20193;-73
2021/01/21 02:39:51;;;;;;;27.57;10.37;;;0.10;89.10;;;;;;4967583;28;20184;-73
2021/01/21 02:42:17;;;;;;;22.00;10.20;;;0.20;89.10;;;;;;4968202;28;20617;-73
2021/01/21 02:44:43;;;;;;;18.90;9.87;;;0.10;89.10;;;;;;4967885;28;20265;-73
2021/01/21 02:47:10;;;;;;;25.50;11.60;;;0.10;89.00;;;;;;4968023;28;20186;-73
2021/01/21 02:49:36;;;;;;;17.57;10.57;;;0.10;88.90;;;;;;4950476;28;20193;-73
2021/01/21 02:52:34;;;;;;;18.70;11.03;;;0.10;89.00;;;;;;4966866;28;20179;-73
2021/01/21 02:55:26;;;;;;;14.97;9.10;;;0.10;89.00;;;;;;4925490;29;20272;-73
2021/01/21 02:57:57;;;;;;;20.40;10.17;;;0.10;89.10;;;;;;4926899;29;20191;-74
2021/01/21 03:00:24;;;;;;;19.07;9.53;;;0.00;88.80;;;;;;4926356;29;20203;-73
2021/01/21 03:02:57;;;;;;;11.00;7.93;;;0.00;89.10;;;;;;4925960;29;20210;-73
2021/01/21 03:05:25;;;;;;;17.17;9.83;;;0.10;89.10;;;;;;4925571;29;20682;-73
2021/01/21 03:07:52;;;;;;;21.47;9.93;;;0.00;89.10;;;;;;4925953;29;20218;-73
2021/01/21 03:10:19;;;;;;;29.00;10.43;;;0.00;89.30;;;;;;4925008;29;20648;-73
2021/01/21 03:12:58;;;;;;;21.67;9.80;;;0.10;89.40;;;;;;4926497;29;20290;-73
2021/01/21 03:15:24;;;;;;;14.07;9.43;;;0.10;89.20;;;;;;4926505;29;20231;-73
2021/01/21 03:17:51;;;;;;;19.33;10.20;;;0.00;89.10;;;;;;4925716;29;20278;-73
2021/01/21 03:20:17;;;;;;;13.33;9.00;;;0.00;89.10;;;;;;4923058;29;20251;-73
2021/01/21 03:22:43;;;;;;;15.27;9.53;;;0.00;89.10;;;;;;4926017;29;20200;-73
2021/01/21 03:25:11;;;;;;;18.33;10.00;;;0.00;89.00;;;;;;4923922;29;20232;-73
2021/01/21 03:27:37;;;;;;;17.23;9.87;;;0.00;89.00;;;;;;4907072;29;20195;-73
2021/01/21 03:30:07;;;;;;;22.50;10.73;;;0.00;89.10;;;;;;4914996;29;20203;-73
2021/01/21 03:32:34;;;;;;;21.60;12.10;;;0.00;89.10;;;;;;4960251;28;20202;-73
2021/01/21 03:34:59;;;;;;;22.40;12.70;;;0.00;89.10;;;;;;4948225;28;20189;-73
2021/01/21 03:37:25;;;;;;;22.67;12.40;;;0.00;89.20;;;;;;4948633;28;20571;-73
2021/01/21 03:39:51;;;;;;;25.00;13.40;;;0.00;89.20;;;;;;4966335;28;20190;-73
2021/01/21 03:42:17;;;;;;;25.33;14.03;;;0.00;89.50;;;;;;4967126;28;20269;-73
2021/01/21 03:44:42;;;;;;;22.23;11.27;;;0.00;89.50;;;;;;4959907;28;20596;-73
2021/01/21 03:47:08;;;;;;;22.37;12.70;;;-0.10;89.50;;;;;;4966666;28;20193;-73
2021/01/21 03:49:34;;;;;;;31.17;13.27;;;-0.10;89.50;;;;;;4948655;28;20674;-74
2021/01/21 03:52:00;;;;;;;32.97;15.53;;;-0.20;89.60;;;;;;4949075;28;20197;-74
2021/01/21 03:54:26;;;;;;;41.27;18.13;;;-0.20;90.10;;;;;;4948919;28;20794;-73
2021/01/21 03:56:52;;;;;;;36.47;16.37;;;-0.30;90.20;;;;;;4949179;28;20244;-74
2021/01/21 03:59:18;;;;;;;38.60;17.13;;;-0.30;90.60;;;;;;4958376;28;20195;-73
2021/01/21 04:01:44;;;;;;;36.97;16.33;;;-0.20;90.50;;;;;;4966298;28;20245;-73
2021/01/21 04:04:10;;;;;;;40.03;15.60;;;-0.20;90.30;;;;;;4964171;28;20638;-73
2021/01/21 04:06:35;;;;;;;34.80;16.70;;;-0.30;90.30;;;;;;4965713;28;20202;-73
2021/01/21 04:09:01;;;;;;;42.67;19.23;;;-0.30;90.20;;;;;;4965172;28;20183;-73
2021/01/21 04:11:27;;;;;;;37.63;18.40;;;-0.30;90.10;;;;;;4948891;28;20186;-73
2021/01/21 04:13:53;;;;;;;43.77;20.97;;;-0.30;90.00;;;;;;4949397;28;20186;-73
2021/01/21 04:16:18;;;;;;;55.77;23.13;;;-0.30;90.20;;;;;;4963045;28;20703;-73
2021/01/21 04:18:44;;;;;;;50.23;25.33;;;-0.30;90.20;;;;;;4948879;28;20344;-74
2021/01/21 04:21:09;;;;;;;67.47;29.37;;;-0.30;90.20;;;;;;4966300;28;20265;-73
2021/01/21 04:23:35;;;;;;;70.50;29.83;;;-0.30;90.30;;;;;;4967217;28;20269;-73
2021/01/21 04:26:02;;;;;;;62.97;27.23;;;-0.30;90.60;;;;;;4966207;28;20205;-73
2021/01/21 04:28:28;;;;;;;62.03;26.57;;;-0.30;90.50;;;;;;4965194;28;20190;-74
2021/01/21 04:30:53;;;;;;;53.13;25.57;;;-0.20;90.80;;;;;;4948548;28;20194;-73
2021/01/21 04:33:19;;;;;;;55.93;22.23;;;-0.20;90.80;;;;;;4955616;28;20269;-73
2021/01/21 04:35:45;;;;;;;40.30;17.50;;;-0.20;90.70;;;;;;4941440;28;20187;-74
2021/01/21 04:38:10;;;;;;;40.23;16.73;;;-0.20;90.50;;;;;;4966786;28;20186;-74
2021/01/21 04:40:36;;;;;;;40.47;18.03;;;-0.20;90.40;;;;;;4965642;28;20191;-74
2021/01/21 04:43:02;;;;;;;37.43;16.37;;;-0.20;90.40;;;;;;4966513;28;20196;-74
2021/01/21 04:45:28;;;;;;;38.13;16.30;;;-0.20;90.30;;;;;;4966569;28;20269;-74
2021/01/21 04:47:54;;;;;;;35.37;16.87;;;-0.20;90.20;;;;;;4966436;28;20973;-74
2021/01/21 04:50:20;;;;;;;33.40;15.40;;;-0.20;90.20;;;;;;4965010;28;20191;-74
2021/01/21 04:52:48;;;;;;;41.70;18.77;;;-0.20;90.20;;;;;;4965996;28;20221;-74
2021/01/21 04:55:22;;;;;;;46.53;21.43;;;-0.20;90.10;;;;;;4962104;28;20194;-74
2021/01/21 04:57:59;;;;;;;42.13;21.03;;;-0.20;90.10;;;;;;4965320;28;20257;-74
2021/01/21 05:00:27;;;;;;;64.13;24.47;;;-0.20;90.00;;;;;;4965655;28;20189;-74
2021/01/21 05:02:54;;;;;;;60.63;22.80;;;-0.20;90.40;;;;;;4965634;28;20573;-74
2021/01/21 05:05:20;;;;;;;59.77;23.80;;;-0.20;90.30;;;;;;4966042;28;20257;-73
2021/01/21 05:07:46;;;;;;;55.87;23.53;;;-0.30;90.40;;;;;;4963025;28;20193;-73
2021/01/21 05:10:12;;;;;;;52.07;22.30;;;-0.30;90.90;;;;;;4948017;28;20186;-73
2021/01/21 05:12:39;;;;;;;44.83;20.47;;;-0.30;91.00;;;;;;4965553;28;20262;-73
2021/01/21 05:15:05;;;;;;;51.17;19.80;;;-0.30;90.80;;;;;;4950665;28;20186;-72
2021/01/21 05:17:32;;;;;;;37.63;17.87;;;-0.30;91.00;;;;;;4968770;28;20190;-72
2021/01/21 05:19:59;;;;;;;32.60;16.53;;;-0.30;91.00;;;;;;4964044;28;20183;-72
2021/01/21 05:22:25;;;;;;;28.57;15.13;;;-0.30;90.90;;;;;;4963754;28;20313;-73
2021/01/21 05:24:50;;;;;;;33.80;15.07;;;-0.20;90.70;;;;;;4967389;28;20758;-73
2021/01/21 05:27:19;;;;;;;30.67;14.70;;;-0.30;90.70;;;;;;4969334;28;20219;-76
2021/01/21 05:29:46;;;;;;;28.93;14.67;;;-0.20;90.60;;;;;;4951756;28;20655;-74
2021/01/21 05:32:14;;;;;;;35.13;16.27;;;-0.20;90.60;;;;;;4969865;28;20253;-74
2021/01/21 05:34:40;;;;;;;31.67;14.73;;;-0.20;90.60;;;;;;4968853;28;20182;-74
2021/01/21 05:37:13;;;;;;;30.17;15.07;;;-0.20;90.50;;;;;;4969232;28;20228;-74
2021/01/21 05:39:46;;;;;;;32.70;14.67;;;-0.20;90.50;;;;;;4968917;28;20261;-74
2021/01/21 05:42:12;;;;;;;30.93;13.73;;;-0.10;90.50;;;;;;4951068;28;20265;-75
2021/01/21 05:44:39;;;;;;;19.50;11.33;;;-0.10;90.40;;;;;;4967989;28;20206;-74
2021/01/21 05:47:09;;;;;;;16.50;10.73;;;-0.10;90.30;;;;;;4969135;28;20206;-75
2021/01/21 05:49:36;;;;;;;23.03;12.17;;;-0.10;90.30;;;;;;4969002;28;20179;-73
2021/01/21 05:52:02;;;;;;;25.23;12.23;;;-0.20;90.30;;;;;;4956485;28;20257;-73
2021/01/21 05:54:29;;;;;;;18.80;11.27;;;-0.20;90.30;;;;;;4968652;28;20179;-74
2021/01/21 05:57:00;;;;;;;16.03;8.57;;;-0.20;90.50;;;;;;4964843;28;20182;-74
2021/01/21 05:59:27;;;;;;;19.00;8.93;;;-0.20;90.50;;;;;;4965374;28;20221;-74
2021/01/21 06:01:53;;;;;;;15.03;9.43;;;-0.20;90.60;;;;;;4952985;28;20281;-74
2021/01/21 06:04:24;;;;;;;19.20;9.60;;;-0.20;90.60;;;;;;4939418;28;20915;-73
2021/01/21 06:06:51;;;;;;;20.07;10.63;;;-0.10;90.50;;;;;;4950590;28;20207;-74
2021/01/21 06:09:27;;;;;;;17.47;8.83;;;-0.10;90.60;;;;;;4958905;28;20182;-74
2021/01/21 06:11:58;;;;;;;22.97;10.27;;;-0.10;90.80;;;;;;4969314;28;20531;-75
2021/01/21 06:14:24;;;;;;;20.10;10.67;;;0.00;90.70;;;;;;4953010;28;20262;-74
2021/01/21 06:16:51;;;;;;;21.07;10.23;;;0.00;90.40;;;;;;4967163;28;20573;-74
2021/01/21 06:19:17;;;;;;;22.87;12.07;;;0.00;90.30;;;;;;4968265;28;20244;-75
2021/01/21 06:21:47;;;;;;;18.33;11.47;;;0.00;90.40;;;;;;4965484;28;20225;-75
2021/01/21 06:24:16;;;;;;;22.57;12.17;;;0.00;90.40;;;;;;4969774;28;20182;-79
2021/01/21 06:26:46;;;;;;;26.47;12.43;;;0.10;90.60;;;;;;4969561;28;20207;-77
2021/01/21 06:29:16;;;;;;;24.70;13.47;;;0.10;90.60;;;;;;4962777;28;20192;-73
2021/01/21 06:31:43;;;;;;;25.63;12.90;;;0.10;90.30;;;;;;4963462;28;20265;-74
2021/01/21 06:34:16;;;;;;;22.77;12.23;;;0.20;90.20;;;;;;4966383;28;20261;-75
2021/01/21 06:36:44;;;;;;;39.63;16.57;;;0.30;90.00;;;;;;4959020;28;20174;-75
2021/01/21 06:39:17;;;;;;;34.37;17.50;;;0.30;89.90;;;;;;4958063;28;20187;-73
2021/01/21 06:41:45;;;;;;;48.40;20.53;;;0.30;89.80;;;;;;4966438;28;20567;-72
2021/01/21 06:44:15;;;;;;;42.00;18.70;;;0.30;89.90;;;;;;4962331;28;20638;-73
2021/01/21 06:46:43;;;;;;;37.40;16.90;;;0.30;89.90;;;;;;4963491;28;20281;-75
2021/01/21 06:49:11;;;;;;;36.80;18.67;;;0.30;89.90;;;;;;4968007;28;20225;-74
2021/01/21 06:51:38;;;;;;;33.07;16.50;;;0.40;89.90;;;;;;4962151;28;20626;-75
2021/01/21 06:54:04;;;;;;;36.27;16.50;;;0.40;89.70;;;;;;4965217;28;20193;-75
2021/01/21 06:56:31;;;;;;;28.20;15.83;;;0.40;89.80;;;;;;4967643;28;20240;-75
2021/01/21 06:58:57;;;;;;;34.47;18.03;;;0.50;89.90;;;;;;4967786;28;20186;-76
2021/01/21 07:01:32;;;;;;;30.33;15.37;;;0.50;89.70;;;;;;4968266;28;20249;-73
2021/01/21 07:03:58;;;;;;;26.53;14.67;;;0.60;89.70;;;;;;4968289;28;20181;-74
2021/01/21 07:06:24;;;;;;;42.87;17.43;;;0.70;89.80;;;;;;4966693;28;20213;-74
2021/01/21 07:09:06;;;;;;;47.50;22.00;;;0.80;89.60;;;;;;4961455;28;20178;-74
2021/01/21 07:11:35;;;;;;;59.93;25.90;;;0.90;89.50;;;;;;4967560;28;20195;-74
2021/01/21 07:14:04;;;;;;;56.90;27.60;;;1.00;89.40;;;;;;4950932;28;20300;-74
2021/01/21 07:16:33;;;;;;;63.10;29.20;;;1.10;89.10;;;;;;4950504;28;20240;-74
2021/01/21 07:19:02;;;;;;;58.60;30.27;;;1.20;89.00;;;;;;4966418;28;20241;-74
2021/01/21 07:21:32;;;;;;;63.20;26.77;;;1.30;88.80;;;;;;4966002;28;20221;-74
2021/01/21 07:24:03;;;;;;;61.60;30.07;;;1.40;88.50;;;;;;4965907;28;20201;-74
2021/01/21 07:26:41;;;;;;;68.13;30.17;;;1.50;88.40;;;;;;4966406;28;20315;-74
2021/01/21 07:29:13;;;;;;;73.67;31.13;;;1.60;88.20;;;;;;4964311;28;20286;-75
2021/01/21 07:31:55;;;;;;;71.67;32.47;;;1.70;88.00;;;;;;4964015;28;20194;-76
2021/01/21 07:34:38;;;;;;;62.57;29.33;;;1.80;87.40;;;;;;4964831;28;20174;-76
2021/01/21 07:37:16;;;;;;;84.47;33.17;;;1.90;87.30;;;;;;4963743;28;20190;-75
2021/01/21 07:39:53;;;;;;;75.57;32.77;;;2.10;87.30;;;;;;4966093;28;20248;-76
2021/01/21 07:42:20;;;;;;;84.00;32.83;;;2.20;86.80;;;;;;4965318;28;20969;-76
2021/01/21 07:45:00;;;;;;;77.97;33.33;;;2.30;86.60;;;;;;4940336;28;20190;-75
2021/01/21 07:47:31;;;;;;;75.57;34.37;;;2.40;86.40;;;;;;4954476;28;20186;-76
2021/01/21 07:50:22;;;;;;;84.90;37.90;;;2.50;86.20;;;;;;4941663;28;20667;-76
2021/01/21 07:53:08;;;;;;;76.17;35.47;;;2.60;85.70;;;;;;4964489;28;20190;-76
2021/01/21 07:55:39;;;;;;;69.80;33.70;;;2.60;85.60;;;;;;4965841;28;20205;-75
2021/01/21 07:58:15;;;;;;;59.23;26.97;;;2.60;85.50;;;;;;4957105;28;21004;-75
2021/01/21 08:00:41;;;;;;;45.03;24.20;;;2.70;85.10;;;;;;4964045;28;20185;-75
2021/01/21 08:03:07;;;;;;;57.90;25.57;;;2.70;84.60;;;;;;4948943;28;20575;-75
2021/01/21 08:05:39;;;;;;;50.40;25.90;;;2.70;84.50;;;;;;4966732;28;20202;-75
2021/01/21 08:08:06;;;;;;;55.07;26.83;;;2.80;84.60;;;;;;4962644;28;20188;-75
2021/01/21 08:10:34;;;;;;;40.87;21.60;;;2.80;84.40;;;;;;4964631;28;20182;-75
2021/01/21 08:13:15;;;;;;;46.00;22.47;;;2.80;84.30;;;;;;4948586;28;20835;-75
2021/01/21 08:15:41;;;;;;;48.30;22.17;;;2.90;84.10;;;;;;4948780;28;20174;-75
2021/01/21 08:18:14;;;;;;;38.67;20.17;;;3.00;84.00;;;;;;4946885;28;20186;-75
2021/01/21 08:20:40;;;;;;;42.97;18.73;;;3.20;84.00;;;;;;4940893;28;20187;-75
2021/01/21 08:23:10;;;;;;;35.63;19.97;;;3.40;84.00;;;;;;4952183;28;20189;-75
2021/01/21 08:25:41;;;;;;;37.67;19.97;;;3.60;83.60;;;;;;4963850;28;20209;-75
2021/01/21 08:28:07;;;;;;;44.93;20.57;;;3.80;83.20;;;;;;4948560;28;20178;-75
2021/01/21 08:30:33;;;;;;;38.27;18.90;;;3.90;82.80;;;;;;4962554;28;20244;-75
2021/01/21 08:33:03;;;;;;;34.07;19.63;;;4.10;82.10;;;;;;4962954;28;20182;-74
2021/01/21 08:35:33;;;;;;;41.37;18.87;;;4.30;81.90;;;;;;4960105;28;20189;-74
2021/01/21 08:37:59;;;;;;;36.67;20.53;;;4.50;81.50;;;;;;4963960;28;20190;-74
2021/01/21 08:40:26;;;;;;;41.80;20.47;;;4.70;81.30;;;;;;4965380;28;20200;-75
2021/01/21 08:42:54;;;;;;;40.03;20.77;;;4.90;79.90;;;;;;4963572;28;20206;-75
2021/01/21 08:45:21;;;;;;;29.30;17.83;;;5.00;79.80;;;;;;4956574;28;20713;-75
2021/01/21 08:47:50;;;;;;;31.57;17.57;;;5.10;78.60;;;;;;4957471;28;20183;-75
2021/01/21 08:50:18;;;;;;;32.53;17.60;;;5.20;78.60;;;;;;4965025;28;20186;-75
2021/01/21 08:53:05;;;;;;;35.93;17.67;;;5.40;78.70;;;;;;4969005;28;20209;-75
2021/01/21 08:55:43;;;;;;;32.23;16.43;;;5.50;78.80;;;;;;4967105;28;20182;-75
2021/01/21 08:58:12;;;;;;;39.83;18.27;;;5.50;78.50;;;;;;4968701;28;20209;-75
2021/01/21 09:00:39;;;;;;;32.27;17.07;;;5.60;78.60;;;;;;4967645;28;20237;-76
2021/01/21 09:03:05;;;;;;;30.60;18.67;;;5.60;78.40;;;;;;4965616;28;20193;-75
2021/01/21 09:05:31;;;;;;;33.03;17.57;;;5.60;78.10;;;;;;4950580;28;20206;-75
2021/01/21 09:08:05;;;;;;;29.70;17.03;;;5.70;77.40;;;;;;4968720;28;20182;-75
2021/01/21 09:10:56;;;;;;;29.10;15.83;;;5.70;77.80;;;;;;4967875;28;20182;-75
2021/01/21 09:13:21;;;;;;;21.90;14.13;;;5.80;77.00;;;;;;4951541;28;20194;-75
2021/01/21 09:15:52;;;;;;;28.70;15.87;;;5.80;77.10;;;;;;4951481;28;20730;-75
2021/01/21 09:18:19;;;;;;;30.80;16.53;;;5.80;76.60;;;;;;4968734;28;20178;-75
2021/01/21 09:20:46;;;;;;;28.50;14.50;;;5.90;77.00;;;;;;4967471;28;20190;-74
2021/01/21 09:23:17;;;;;;;26.17;15.67;;;6.00;76.60;;;;;;4967877;28;20190;-75
2021/01/21 09:25:43;;;;;;;26.83;16.87;;;6.00;76.50;;;;;;4945122;28;20198;-75
2021/01/21 09:28:11;;;;;;;24.20;14.83;;;6.10;76.40;;;;;;4949092;29;20191;-74
2021/01/21 09:30:38;;;;;;;28.30;15.80;;;6.20;76.10;;;;;;4958480;28;20186;-74
2021/01/21 09:33:04;;;;;;;21.97;15.20;;;6.20;76.40;;;;;;4969862;28;20230;-75
2021/01/21 09:35:29;;;;;;;24.23;15.30;;;6.30;75.70;;;;;;4951228;28;20201;-75
2021/01/21 09:37:58;;;;;;;25.47;15.20;;;6.30;75.50;;;;;;4969426;28;20178;-75
2021/01/21 09:40:34;;;;;;;26.43;15.57;;;6.30;75.60;;;;;;4969939;28;21006;-75
2021/01/21 09:43:05;;;;;;;26.60;15.80;;;6.40;75.50;;;;;;4958994;28;20239;-75
2021/01/21 09:45:32;;;;;;;27.77;15.60;;;6.40;75.40;;;;;;4946052;28;20233;-75
2021/01/21 09:47:58;;;;;;;28.90;15.83;;;6.40;75.70;;;;;;4968597;28;20185;-75
2021/01/21 09:50:24;;;;;;;29.17;17.33;;;6.40;75.20;;;;;;4968606;28;20241;-75
2021/01/21 09:52:51;;;;;;;31.77;18.03;;;6.50;75.40;;;;;;4947104;28;20193;-75
2021/01/21 09:55:17;;;;;;;35.60;19.80;;;6.50;76.00;;;;;;4951226;28;20647;-75
2021/01/21 09:57:43;;;;;;;39.20;22.30;;;6.50;75.90;;;;;;4966769;28;20191;-76
2021/01/21 10:00:13;;;;;;;41.03;23.63;;;6.50;75.80;;;;;;4936668;28;20193;-75
2021/01/21 10:02:40;;;;;;;54.17;26.57;;;6.60;75.70;;;;;;4935029;28;20183;-74
2021/01/21 10:05:06;;;;;;;45.00;27.03;;;6.60;75.80;;;;;;4968038;28;20596;-74
2021/01/21 10:07:32;;;;;;;50.63;28.60;;;6.70;75.70;;;;;;4962024;28;20206;-75
2021/01/21 10:09:58;;;;;;;51.70;27.73;;;6.70;75.80;;;;;;4968645;28;20225;-75
2021/01/21 10:12:23;;;;;;;38.17;22.57;;;6.70;75.80;;;;;;4951718;28;20281;-76
2021/01/21 10:14:50;;;;;;;32.20;17.40;;;6.80;75.20;;;;;;4951280;28;20205;-74
2021/01/21 10:17:16;;;;;;;27.13;16.23;;;6.90;74.70;;;;;;4968235;28;20730;-75
2021/01/21 10:19:42;;;;;;;18.23;12.00;;;6.90;74.20;;;;;;4968548;28;20269;-74
2021/01/21 10:22:07;;;;;;;27.10;15.10;;;7.00;73.90;;;;;;4968495;28;20242;-74
2021/01/21 10:24:34;;;;;;;35.43;18.70;;;7.10;73.00;;;;;;4968234;28;20186;-75
2021/01/21 10:27:01;;;;;;;33.87;19.83;;;7.10;73.40;;;;;;4968694;28;20594;-76
2021/01/21 10:29:26;;;;;;;23.87;13.63;;;7.20;73.60;;;;;;4967757;28;20205;-75
2021/01/21 10:31:52;;;;;;;18.17;10.53;;;7.20;73.40;;;;;;4968134;28;20183;-75
2021/01/21 10:34:18;;;;;;;17.17;11.53;;;7.30;72.60;;;;;;4968457;28;20229;-73
2021/01/21 10:36:44;;;;;;;38.53;18.60;;;7.40;72.90;;;;;;4968252;28;20580;-74
2021/01/21 10:39:28;;;;;;;35.10;20.63;;;7.40;72.30;;;;;;4968491;28;20191;-77
2021/01/21 10:41:54;;;;;;;42.57;22.77;;;7.50;72.90;;;;;;4968205;28;20174;-74
2021/01/21 10:44:20;;;;;;;41.43;24.23;;;7.60;73.00;;;;;;4968455;28;20193;-74
2021/01/21 10:46:45;;;;;;;37.87;18.70;;;7.70;72.80;;;;;;4968871;28;20216;-75
2021/01/21 10:49:11;;;;;;;24.50;14.60;;;7.80;72.60;;;;;;4966794;28;20182;-75
2021/01/21 10:51:37;;;;;;;25.77;15.07;;;7.80;72.20;;;;;;4968296;28;20309;-75
2021/01/21 10:54:02;;;;;;;23.30;14.40;;;7.80;72.10;;;;;;4968152;28;20179;-74
2021/01/21 10:56:29;;;;;;;25.07;14.93;;;7.90;71.80;;;;;;4967830;28;20253;-74
2021/01/21 10:58:55;;;;;;;18.40;10.97;;;7.90;71.90;;;;;;4967602;28;20193;-75
2021/01/21 11:01:20;;;;;;;18.40;10.47;;;7.90;69.90;;;;;;4967274;28;20186;-74
2021/01/21 11:03:46;;;;;;;16.27;9.43;;;7.80;70.90;;;;;;4967141;28;20330;-74
2021/01/21 11:06:12;;;;;;;17.30;11.53;;;7.80;70.90;;;;;;4966568;28;20289;-74
2021/01/21 11:08:37;;;;;;;15.83;10.97;;;7.80;70.90;;;;;;4966750;28;20655;-75
2021/01/21 11:11:03;;;;;;;13.27;10.03;;;7.80;71.90;;;;;;4964991;28;20193;-75
2021/01/21 11:13:32;;;;;;;14.63;9.80;;;7.90;72.00;;;;;;4965991;28;20715;-76
2021/01/21 11:15:58;;;;;;;14.77;9.33;;;8.00;71.20;;;;;;4949606;28;20703;-76
2021/01/21 11:18:24;;;;;;;12.03;8.57;;;8.00;70.30;;;;;;4966172;28;20289;-76
2021/01/21 11:20:49;;;;;;;11.60;8.80;;;8.10;71.00;;;;;;4966693;28;20194;-76
2021/01/21 11:23:15;;;;;;;16.97;8.73;;;8.20;69.40;;;;;;4966349;28;20632;-75
2021/01/21 11:25:42;;;;;;;11.97;8.40;;;8.20;69.40;;;;;;4963743;28;20269;-75
2021/01/21 11:28:08;;;;;;;10.70;8.10;;;8.10;70.00;;;;;;4964603;28;20228;-76
2021/01/21 11:30:34;;;;;;;11.60;8.27;;;8.10;70.30;;;;;;4966415;28;20233;-76
2021/01/21 11:32:59;;;;;;;12.63;8.73;;;8.10;70.00;;;;;;4965590;28;20186;-74
2021/01/21 11:35:25;;;;;;;11.60;9.00;;;8.20;69.10;;;;;;4965972;28;20197;-74
2021/01/21 11:37:51;;;;;;;19.53;8.63;;;8.10;70.10;;;;;;4966063;28;20202;-74
2021/01/21 11:40:17;;;;;;;13.67;8.40;;;8.00;69.40;;;;;;4948022;28;20190;-74
2021/01/21 11:42:43;;;;;;;16.23;9.20;;;8.00;70.00;;;;;;4948568;28;20187;-76
2021/01/21 11:45:09;;;;;;;13.33;8.47;;;8.10;69.80;;;;;;4966060;28;20652;-75
2021/01/21 11:47:41;;;;;;;10.40;8.50;;;8.10;70.40;;;;;;4965491;28;20663;-75
2021/01/21 11:50:09;;;;;;;14.03;9.10;;;8.20;70.50;;;;;;4965313;28;20253;-75
2021/01/21 11:52:35;;;;;;;12.37;8.50;;;8.30;70.40;;;;;;4965670;28;20187;-75
2021/01/21 11:55:01;;;;;;;14.13;9.77;;;8.40;69.90;;;;;;4952951;28;20186;-75
2021/01/21 11:57:26;;;;;;;16.33;9.50;;;8.50;69.90;;;;;;4966360;28;20265;-75
2021/01/21 11:59:52;;;;;;;12.53;9.47;;;8.60;69.60;;;;;;4964833;28;20545;-75
2021/01/21 12:02:18;;;;;;;19.20;9.60;;;8.70;69.40;;;;;;4965790;28;21089;-75
2021/01/21 12:04:43;;;;;;;15.53;10.23;;;8.90;69.30;;;;;;4965197;28;20265;-75
2021/01/21 12:07:09;;;;;;;16.00;10.93;;;9.00;69.10;;;;;;4965045;28;20308;-75
2021/01/21 12:09:35;;;;;;;18.97;11.07;;;9.20;68.80;;;;;;4966364;28;20648;-75
2021/01/21 12:12:00;;;;;;;14.83;11.17;;;9.30;68.30;;;;;;4964467;28;20190;-74
2021/01/21 12:14:26;;;;;;;21.35;11.90;;;9.50;67.80;;;;;;4964905;28;20240;-75
2021/01/21 12:16:52;;;;;;;20.83;11.40;;;9.60;67.70;;;;;;4966294;28;20248;-75
2021/01/21 12:19:18;;;;;;;15.40;11.20;;;9.80;67.10;;;;;;4966433;28;20338;-75
2021/01/21 12:21:43;;;;;;;18.45;11.35;;;9.80;67.10;;;;;;4966369;28;20269;-75
2021/01/21 12:24:10;;;;;;;17.90;10.83;;;9.80;66.90;;;;;;4966167;28;20179;-75
2021/01/21 12:26:36;;;;;;;25.73;11.27;;;9.90;67.30;;;;;;4965088;28;20284;-74
2021/01/21 12:29:02;;;;;;;14.00;9.95;;;9.80;66.60;;;;;;4966579;28;20229;-75
2021/01/21 12:31:29;;;;;;;20.37;11.07;;;9.80;67.20;;;;;;4966649;28;20182;-75
2021/01/21 12:33:55;;;;;;;19.88;12.02;;;9.90;66.90;;;;;;4966328;28;20182;-75
2021/01/21 12:36:22;;;;;;;22.83;12.68;;;9.80;67.60;;;;;;4966290;28;20269;-75
2021/01/21 12:39:06;;;;;;;17.73;11.95;;;9.80;67.30;;;;;;4965018;28;20311;-75
2021/01/21 12:41:33;;;;;;;20.30;11.63;;;9.90;67.50;;;;;;4965543;28;20228;-76